createdAt,value
2023-02-13T00:01:03.342Z,101144.05
2023-02-13T00:03:31.202Z,101140.54
2023-02-13T00:05:59.189Z,101142.46
2023-02-13T00:08:26.989Z,101139.13
2023-02-13T00:10:55.329Z,101134.94
2023-02-13T00:13:23.353Z,101133.34
2023-02-13T00:15:58.804Z,101131.23
2023-02-13T00:18:28.341Z,101128.59
2023-02-13T00:20:59.928Z,101122.46
2023-02-13T00:23:30.672Z,101121.77
2023-02-13T00:26:00.321Z,101122.82
2023-02-13T00:28:28.435Z,101122.99
2023-02-13T00:31:07.318Z,101130.52
2023-02-13T00:33:35.876Z,101131.91
2023-02-13T00:36:18.753Z,101131.91
2023-02-13T00:38:47.523Z,101127.53
2023-02-13T00:41:18.924Z,101128.94
2023-02-13T00:43:48.239Z,101134.35
2023-02-13T00:46:17.444Z,101136.25
2023-02-13T00:48:45.632Z,101134.86
2023-02-13T00:51:14.110Z,101140.64
2023-02-13T00:53:42.049Z,101140.48
2023-02-13T00:56:09.925Z,101143.63
2023-02-13T00:58:38.975Z,101140.48
2023-02-13T01:01:07.107Z,101137.52
2023-02-13T01:03:35.955Z,101139.09
2023-02-13T01:06:04.296Z,101134.20
2023-02-13T01:08:33.010Z,101131.92
2023-02-13T01:11:00.979Z,101127.54
2023-02-13T01:13:28.904Z,101128.94
2023-02-13T01:15:57.098Z,101126.51
2023-02-13T01:18:25.289Z,101125.98
2023-02-13T01:21:08.420Z,101121.78
2023-02-13T01:23:38.333Z,101119.16
2023-02-13T01:26:08.432Z,101118.82
2023-02-13T01:28:36.460Z,101117.59
2023-02-13T01:31:05.789Z,101116.38
2023-02-13T01:33:34.657Z,101120.73
2023-02-13T01:36:07.683Z,101116.52
2023-02-13T01:38:35.631Z,101116.70
2023-02-13T01:41:04.044Z,101115.66
2023-02-13T01:43:53.626Z,101111.64
2023-02-13T01:46:30.348Z,101110.92
2023-02-13T01:49:05.199Z,101108.65
2023-02-13T01:51:35.996Z,101103.58
2023-02-13T01:54:17.268Z,101107.08
2023-02-13T01:56:52.254Z,101108.48
2023-02-13T01:59:31.923Z,101106.03
2023-02-13T02:02:01.335Z,101108.30
2023-02-13T02:04:33.821Z,101103.95
2023-02-13T02:07:20.166Z,101102.55
2023-02-13T02:09:49.545Z,101096.41
2023-02-13T02:12:22.604Z,101095.02
2023-02-13T02:14:52.798Z,101093.47
2023-02-13T02:17:24.454Z,101085.59
2023-02-13T02:19:58.095Z,101086.47
2023-02-13T02:23:25.688Z,101087.87
2023-02-13T02:26:21.494Z,101085.06
2023-02-13T02:29:24.885Z,101084.71
2023-02-13T02:32:11.203Z,101085.41
2023-02-13T02:34:55.855Z,101086.63
2023-02-13T02:37:41.870Z,101086.63
2023-02-13T02:40:32.893Z,101081.91
2023-02-13T02:43:12.981Z,101084.55
2023-02-13T02:45:51.463Z,101084.56
2023-02-13T02:48:38.249Z,101082.11
2023-02-13T02:51:33.508Z,101082.47
2023-02-13T02:54:32.665Z,101081.94
2023-02-13T02:57:15.377Z,101080.90
2023-02-13T03:00:05.016Z,101083.34
2023-02-13T03:02:52.371Z,101084.56
2023-02-13T03:05:48.178Z,101081.58
2023-02-13T03:08:37.569Z,101072.12
2023-02-13T03:11:25.018Z,101069.13
2023-02-13T03:13:53.759Z,101069.30
2023-02-13T03:16:44.324Z,101075.23
2023-02-13T03:19:50.001Z,101076.44
2023-02-13T03:22:40.744Z,101072.59
2023-02-13T03:25:34.126Z,101079.75
2023-02-13T03:28:26.060Z,101083.27
2023-02-13T03:31:18.628Z,101081.16
2023-02-13T03:33:57.952Z,101083.98
2023-02-13T03:36:53.644Z,101082.75
2023-02-13T03:39:36.801Z,101087.30
2023-02-13T03:42:10.233Z,101087.48
2023-02-13T03:44:45.174Z,101088.35
2023-02-13T03:47:14.809Z,101086.06
2023-02-13T03:50:05.913Z,101082.90
2023-02-13T03:52:48.870Z,101080.11
2023-02-13T03:55:39.904Z,101079.41
2023-02-13T03:58:52.394Z,101080.30
2023-02-13T04:01:25.352Z,101082.05
2023-02-13T04:04:05.034Z,101085.73
2023-02-13T04:06:38.432Z,101085.38
2023-02-13T04:09:06.312Z,101080.48
2023-02-13T04:11:46.922Z,101079.23
2023-02-13T04:14:21.564Z,101084.48
2023-02-13T04:16:58.668Z,101082.73
2023-02-13T04:19:27.198Z,101075.91
2023-02-13T04:21:58.077Z,101073.30
2023-02-13T04:24:27.135Z,101074.88
2023-02-13T04:26:56.257Z,101070.67
2023-02-13T04:29:25.667Z,101071.73
2023-02-13T04:31:53.663Z,101070.85
2023-02-13T04:34:21.833Z,101070.33
2023-02-13T04:36:49.735Z,101068.21
2023-02-13T04:39:17.668Z,101067.53
2023-02-13T04:41:45.734Z,101062.84
2023-02-13T04:44:13.539Z,101066.36
2023-02-13T04:46:41.358Z,101066.36
2023-02-13T04:49:10.964Z,101067.95
2023-02-13T04:51:39.178Z,101065.85
2023-02-13T04:54:07.017Z,101062.34
2023-02-13T04:56:34.828Z,101060.93
2023-02-13T04:59:02.756Z,101061.46
2023-02-13T05:01:30.659Z,101059.02
2023-02-13T05:03:58.494Z,101057.45
2023-02-13T05:06:26.287Z,101057.98
2023-02-13T05:08:54.119Z,101062.02
2023-02-13T05:11:21.914Z,101066.91
2023-02-13T05:13:49.713Z,101064.45
2023-02-13T05:16:17.562Z,101064.98
2023-02-13T05:18:45.375Z,101059.74
2023-02-13T05:21:31.446Z,101058.54
2023-02-13T05:23:59.274Z,101059.76
2023-02-13T05:26:27.060Z,101059.23
2023-02-13T05:29:13.648Z,101054.70
2023-02-13T05:31:41.569Z,101059.45
2023-02-13T05:34:09.532Z,101057.02
2023-02-13T05:36:37.352Z,101059.31
2023-02-13T05:39:05.495Z,101055.30
2023-02-13T05:41:33.594Z,101055.83
2023-02-13T05:44:01.389Z,101059.17
2023-02-13T05:46:29.452Z,101063.19
2023-02-13T05:48:57.451Z,101064.61
2023-02-13T05:51:25.452Z,101064.96
2023-02-13T05:53:53.416Z,101064.26
2023-02-13T05:56:21.311Z,101062.50
2023-02-13T05:58:52.810Z,101063.73
2023-02-13T06:01:21.604Z,101060.56
2023-02-13T06:03:49.446Z,101062.50
2023-02-13T06:06:17.844Z,101071.05
2023-02-13T06:08:45.745Z,101071.91
2023-02-13T06:11:13.571Z,101074.70
2023-02-13T06:13:41.417Z,101076.80
2023-02-13T06:16:11.330Z,101081.87
2023-02-13T06:18:39.387Z,101087.11
2023-02-13T06:21:08.160Z,101090.41
2023-02-13T06:23:36.046Z,101092.85
2023-02-13T06:26:08.851Z,101094.77
2023-02-13T06:28:37.263Z,101094.42
2023-02-13T06:31:05.422Z,101093.00
2023-02-13T06:33:33.259Z,101093.52
2023-02-13T06:36:01.141Z,101099.10
2023-02-13T06:38:29.136Z,101101.38
2023-02-13T06:41:02.065Z,101098.21
2023-02-13T06:43:30.218Z,101096.10
2023-02-13T06:45:59.380Z,101095.38
2023-02-13T06:48:27.252Z,101095.52
2023-02-13T06:50:55.304Z,101093.56
2023-02-13T06:53:24.983Z,101098.80
2023-02-13T06:55:53.626Z,101099.99
2023-02-13T06:58:23.579Z,101096.64
2023-02-13T07:00:52.615Z,101098.89
2023-02-13T07:03:20.783Z,101100.98
2023-02-13T07:05:51.927Z,101103.41
2023-02-13T07:08:19.836Z,101102.52
2023-02-13T07:10:48.094Z,101109.31
2023-02-13T07:13:16.181Z,101105.64
2023-02-13T07:15:44.659Z,101103.52
2023-02-13T07:18:12.756Z,101102.96
2023-02-13T07:20:40.566Z,101102.56
2023-02-13T07:23:08.535Z,101101.31
2023-02-13T07:25:36.442Z,101102.06
2023-02-13T07:28:06.398Z,101097.56
2023-02-13T07:30:35.187Z,101100.96
2023-02-13T07:33:04.419Z,101102.40
2023-02-13T07:35:33.067Z,101099.06
2023-02-13T07:38:01.004Z,101096.57
2023-02-13T07:40:28.938Z,101090.63
2023-02-13T07:43:00.124Z,101094.27
2023-02-13T07:45:28.003Z,101092.60
2023-02-13T07:47:56.476Z,101094.91
2023-02-13T07:50:24.323Z,101092.56
2023-02-13T07:53:00.674Z,101096.31
2023-02-13T07:55:29.950Z,101094.15
2023-02-13T07:58:00.168Z,101093.39
2023-02-13T08:00:28.134Z,101094.54
2023-02-13T08:02:59.175Z,101092.35
2023-02-13T08:05:27.560Z,101096.30
2023-02-13T08:07:55.487Z,101095.50
2023-02-13T08:10:41.906Z,101096.61
2023-02-13T08:13:12.363Z,101099.80
2023-02-13T08:15:40.682Z,101098.45
2023-02-13T08:18:08.565Z,101097.59
2023-02-13T08:20:36.453Z,101103.05
2023-02-13T08:23:06.628Z,101106.04
2023-02-13T08:25:34.550Z,101106.05
2023-02-13T08:28:02.425Z,101109.92
2023-02-13T08:30:30.282Z,101111.90
2023-02-13T08:32:58.105Z,101111.13
2023-02-13T08:35:29.617Z,101113.17
2023-02-13T08:38:01.605Z,101112.16
2023-02-13T08:40:29.470Z,101109.80
2023-02-13T08:43:04.638Z,101108.27
2023-02-13T08:45:33.433Z,101105.86
2023-02-13T08:48:03.926Z,101112.08
2023-02-13T08:50:32.381Z,101113.92
2023-02-13T08:53:00.167Z,101110.70
2023-02-13T08:55:29.873Z,101112.66
2023-02-13T08:58:04.409Z,101114.81
2023-02-13T09:00:32.290Z,101118.68
2023-02-13T09:03:02.310Z,101117.84
2023-02-13T09:05:31.829Z,101118.70
2023-02-13T09:08:02.864Z,101106.97
2023-02-13T09:10:34.673Z,101118.06
2023-02-13T09:13:04.087Z,101124.58
2023-02-13T09:15:33.030Z,101126.41
2023-02-13T09:18:00.850Z,101131.86
2023-02-13T09:20:28.752Z,101134.15
2023-02-13T09:22:57.021Z,101137.42
2023-02-13T09:25:25.773Z,101141.55
2023-02-13T09:27:53.718Z,101138.20
2023-02-13T09:30:24.624Z,101139.77
2023-02-13T09:32:53.768Z,101140.47
2023-02-13T09:35:21.812Z,101136.44
2023-02-13T09:37:49.830Z,101139.63
2023-02-13T09:40:46.725Z,101140.05
2023-02-13T09:43:21.921Z,101148.38
2023-02-13T09:45:52.237Z,101148.82
2023-02-13T09:48:29.901Z,101157.44
2023-02-13T09:50:59.484Z,101165.56
2023-02-13T09:53:29.692Z,101170.23
2023-02-13T09:56:33.401Z,101176.27
2023-02-13T09:59:30.687Z,101182.27
2023-02-13T10:02:08.296Z,101182.67
2023-02-13T10:05:04.588Z,101185.84
2023-02-13T10:07:35.411Z,101190.40
2023-02-13T10:10:23.940Z,101188.32
2023-02-13T10:13:29.878Z,101187.64
2023-02-13T10:16:02.683Z,101187.48
2023-02-13T10:18:43.266Z,101193.07
2023-02-13T10:21:12.114Z,101190.98
2023-02-13T10:24:12.504Z,101192.56
2023-02-13T10:26:43.388Z,101193.77
2023-02-13T10:30:01.427Z,101192.04
2023-02-13T10:32:32.087Z,101189.41
2023-02-13T10:35:04.137Z,101182.95
2023-02-13T10:37:32.061Z,101186.80
2023-02-13T10:39:59.964Z,101179.98
2023-02-13T10:42:38.474Z,101179.08
2023-02-13T10:45:32.173Z,101174.52
2023-02-13T10:48:29.246Z,101169.77
2023-02-13T10:51:21.174Z,101167.14
2023-02-13T10:54:07.381Z,101167.83
2023-02-13T10:56:44.108Z,101165.04
2023-02-13T10:59:11.877Z,101160.30
2023-02-13T11:01:56.487Z,101158.34
2023-02-13T11:04:24.487Z,101159.02
2023-02-13T11:06:56.668Z,101156.04
2023-02-13T11:09:25.605Z,101148.85
2023-02-13T11:11:54.958Z,101150.95
2023-02-13T11:14:26.818Z,101150.57
2023-02-13T11:17:14.327Z,101151.08
2023-02-13T11:20:22.647Z,101143.19
2023-02-13T11:22:50.577Z,101136.87
2023-02-13T11:25:22.773Z,101140.37
2023-02-13T11:27:54.770Z,101129.00
2023-02-13T11:30:28.785Z,101126.88
2023-02-13T11:33:07.063Z,101132.79
2023-02-13T11:35:36.784Z,101132.40
2023-02-13T11:38:10.718Z,101132.91
2023-02-13T11:40:38.792Z,101133.02
2023-02-13T11:43:08.109Z,101131.36
2023-02-13T11:45:36.176Z,101128.52
2023-02-13T11:48:15.404Z,101123.77
2023-02-13T11:50:46.279Z,101123.38
2023-02-13T11:53:25.643Z,101120.56
2023-02-13T11:56:05.836Z,101115.41
2023-02-13T11:58:34.833Z,101113.65
2023-02-13T12:01:25.059Z,101114.21
2023-02-13T12:04:06.166Z,101110.08
2023-02-13T12:06:39.550Z,101105.66
2023-02-13T12:09:15.852Z,101108.80
2023-02-13T12:11:53.812Z,101107.17
2023-02-13T12:14:25.324Z,101102.11
2023-02-13T12:17:30.810Z,101101.02
2023-02-13T12:20:00.762Z,101096.69
2023-02-13T12:22:59.675Z,101098.91
2023-02-13T12:25:58.509Z,101099.35
2023-02-13T12:28:33.248Z,101099.50
2023-02-13T12:31:32.845Z,101100.89
2023-02-13T12:34:19.367Z,101102.09
2023-02-13T12:36:58.240Z,101103.81
2023-02-13T12:39:34.048Z,101103.98
2023-02-13T12:42:08.017Z,101099.48
2023-02-13T12:45:11.680Z,101098.52
2023-02-13T12:48:00.469Z,101088.77
2023-02-13T12:50:45.728Z,101093.13
2023-02-13T12:53:20.197Z,101098.14
2023-02-13T12:56:12.585Z,101095.67
2023-02-13T12:59:00.572Z,101095.00
2023-02-13T13:02:07.966Z,101090.58
2023-02-13T13:04:48.149Z,101087.58
2023-02-13T13:07:44.888Z,101088.63
2023-02-13T13:10:15.870Z,101086.80
2023-02-13T13:12:55.065Z,101082.73
2023-02-13T13:15:56.608Z,101077.10
2023-02-13T13:18:47.485Z,101074.84
2023-02-13T13:21:38.718Z,101073.13
2023-02-13T13:24:30.607Z,101066.20
2023-02-13T13:27:02.364Z,101069.09
2023-02-13T13:29:46.012Z,101067.96
2023-02-13T13:32:17.112Z,101071.14
2023-02-13T13:34:46.594Z,101075.38
2023-02-13T13:37:35.415Z,101078.38
2023-02-13T13:40:42.490Z,101077.02
2023-02-13T13:43:20.770Z,101084.39
2023-02-13T13:46:26.409Z,101094.73
2023-02-13T13:49:10.516Z,101097.73
2023-02-13T13:51:39.104Z,101097.59
2023-02-13T13:54:07.109Z,101098.51
2023-02-13T13:56:53.324Z,101096.77
2023-02-13T13:59:33.294Z,101094.48
2023-02-13T14:02:19.917Z,101091.33
2023-02-13T14:05:19.155Z,101089.96
2023-02-13T14:08:03.889Z,101091.92
2023-02-13T14:10:31.987Z,101094.33
2023-02-13T14:13:03.100Z,101089.02
2023-02-13T14:15:34.032Z,101087.08
2023-02-13T14:18:14.206Z,101083.77
2023-02-13T14:20:51.600Z,101075.54
2023-02-13T14:23:53.752Z,101071.15
2023-02-13T14:26:35.926Z,101068.17
2023-02-13T14:29:29.247Z,101064.00
2023-02-13T14:32:03.553Z,101061.91
2023-02-13T14:34:38.087Z,101062.76
2023-02-13T14:37:35.848Z,101068.85
2023-02-13T14:40:17.652Z,101072.31
2023-02-13T14:43:24.560Z,101073.69
2023-02-13T14:46:19.417Z,101070.84
2023-02-13T14:49:02.079Z,101064.34
2023-02-13T14:51:40.112Z,101060.84
2023-02-13T14:54:34.763Z,101058.76
2023-02-13T14:57:27.946Z,101057.89
2023-02-13T14:59:59.512Z,101057.16
2023-02-13T15:02:32.115Z,101051.39
2023-02-13T15:05:04.750Z,101046.83
2023-02-13T15:07:37.379Z,101042.25
2023-02-13T15:10:27.794Z,101040.51
2023-02-13T15:13:01.934Z,101033.00
2023-02-13T15:15:36.858Z,101028.96
2023-02-13T15:18:12.015Z,101014.25
2023-02-13T15:20:43.274Z,101007.07
2023-02-13T15:23:28.067Z,101011.27
2023-02-13T15:25:58.988Z,101014.42
2023-02-13T15:28:28.281Z,101009.35
2023-02-13T15:31:01.696Z,100997.45
2023-02-13T15:33:50.037Z,100987.15
2023-02-13T15:36:21.249Z,100986.48
2023-02-13T15:38:49.299Z,100987.23
2023-02-13T15:41:23.803Z,100981.29
2023-02-13T15:43:59.696Z,100987.79
2023-02-13T15:46:36.596Z,100999.36
2023-02-13T15:49:07.757Z,100996.95
2023-02-13T15:51:35.984Z,100996.44
2023-02-13T15:54:07.690Z,100998.21
2023-02-13T15:56:37.848Z,100994.36
2023-02-13T15:59:05.713Z,100992.81
2023-02-13T16:01:34.123Z,101001.95
2023-02-13T16:04:08.797Z,101000.92
2023-02-13T16:06:36.882Z,100999.55
2023-02-13T16:09:06.156Z,100997.63
2023-02-13T16:11:39.824Z,100996.92
2023-02-13T16:14:20.974Z,100990.48
2023-02-13T16:16:54.916Z,100987.34
2023-02-13T16:19:32.476Z,100986.12
2023-02-13T16:22:06.815Z,100984.02
2023-02-13T16:24:36.584Z,100978.98
2023-02-13T16:27:12.505Z,100977.98
2023-02-13T16:29:50.427Z,100986.56
2023-02-13T16:32:26.544Z,100986.29
2023-02-13T16:34:55.551Z,100980.54
2023-02-13T16:37:28.197Z,100977.93
2023-02-13T16:39:56.560Z,100978.15
2023-02-13T16:42:24.834Z,100989.92
2023-02-13T16:45:23.103Z,100993.99
2023-02-13T16:48:02.601Z,100995.25
2023-02-13T16:50:31.124Z,100994.42
2023-02-13T16:53:02.635Z,100989.55
2023-02-13T16:55:31.886Z,100991.30
2023-02-13T16:58:10.805Z,101004.42
2023-02-13T17:00:39.764Z,101015.13
2023-02-13T17:03:09.753Z,101012.52
2023-02-13T17:05:38.129Z,101001.16
2023-02-13T17:08:07.532Z,100998.20
2023-02-13T17:10:38.240Z,101000.65
2023-02-13T17:13:09.277Z,101000.32
2023-02-13T17:15:40.921Z,100992.82
2023-02-13T17:18:08.759Z,100984.77
2023-02-13T17:20:37.855Z,100997.52
2023-02-13T17:23:07.436Z,101012.54
2023-02-13T17:25:37.590Z,101006.43
2023-02-13T17:28:19.242Z,101005.23
2023-02-13T17:30:50.116Z,101023.77
2023-02-13T17:33:23.767Z,101014.86
2023-02-13T17:35:53.120Z,101004.36
2023-02-13T17:38:21.890Z,101015.71
2023-02-13T17:40:50.350Z,101014.81
2023-02-13T17:43:20.592Z,100999.61
2023-02-13T17:45:49.783Z,100998.90
2023-02-13T17:48:17.811Z,101004.65
2023-02-13T17:50:51.016Z,101001.31
2023-02-13T17:53:31.990Z,100993.27
2023-02-13T17:55:59.813Z,100986.10
2023-02-13T17:58:27.764Z,100986.77
2023-02-13T18:00:55.644Z,101000.25
2023-02-13T18:03:23.517Z,100992.58
2023-02-13T18:05:52.097Z,100982.63
2023-02-13T18:08:20.236Z,100979.13
2023-02-13T18:10:48.455Z,100964.10
2023-02-13T18:13:17.190Z,100957.45
2023-02-13T18:15:45.397Z,100963.40
2023-02-13T18:18:15.994Z,100968.98
2023-02-13T18:20:44.427Z,100969.85
2023-02-13T18:23:13.916Z,100962.54
2023-02-13T18:25:41.855Z,100965.38
2023-02-13T18:28:09.773Z,100971.84
2023-02-13T18:30:37.601Z,100976.40
2023-02-13T18:33:05.623Z,100981.14
2023-02-13T18:35:36.065Z,100985.16
2023-02-13T18:38:03.861Z,100986.73
2023-02-13T18:40:31.688Z,100971.69
2023-02-13T18:43:00.841Z,100966.46
2023-02-13T18:45:28.713Z,100971.00
2023-02-13T18:47:56.600Z,100968.58
2023-02-13T18:50:24.455Z,100960.18
2023-02-13T18:52:52.368Z,100964.89
2023-02-13T18:55:20.169Z,100972.58
2023-02-13T18:57:52.189Z,100971.00
2023-02-13T19:00:22.230Z,100966.27
2023-02-13T19:02:50.105Z,100967.16
2023-02-13T19:05:18.487Z,100971.33
2023-02-13T19:07:46.312Z,100979.70
2023-02-13T19:10:15.621Z,100984.24
2023-02-13T19:12:43.878Z,100984.05
2023-02-13T19:15:11.911Z,100983.88
2023-02-13T19:17:39.810Z,100987.90
2023-02-13T19:20:08.478Z,100988.10
2023-02-13T19:22:36.390Z,100999.45
2023-02-13T19:25:04.570Z,100999.65
2023-02-13T19:27:32.455Z,100993.17
2023-02-13T19:30:00.371Z,100990.38
2023-02-13T19:32:28.316Z,100995.61
2023-02-13T19:34:56.229Z,100987.02
2023-02-13T19:37:25.332Z,100980.20
2023-02-13T19:39:54.650Z,100988.44
2023-02-13T19:42:22.614Z,100999.11
2023-02-13T19:44:50.572Z,101012.60
2023-02-13T19:47:18.584Z,101019.23
2023-02-13T19:49:48.090Z,101023.59
2023-02-13T19:52:16.010Z,101026.36
2023-02-13T19:54:44.102Z,101025.14
2023-02-13T19:57:13.932Z,101025.84
2023-02-13T19:59:41.697Z,101021.11
2023-02-13T20:02:14.481Z,101031.41
2023-02-13T20:04:42.357Z,101034.20
2023-02-13T20:07:10.356Z,101027.37
2023-02-13T20:09:39.819Z,101028.08
2023-02-13T20:12:07.692Z,101036.47
2023-02-13T20:14:35.529Z,101041.70
2023-02-13T20:17:03.524Z,101042.05
2023-02-13T20:19:31.564Z,101039.09
2023-02-13T20:21:59.560Z,101042.76
2023-02-13T20:24:27.590Z,101045.20
2023-02-13T20:26:58.831Z,101049.75
2023-02-13T20:29:26.664Z,101049.41
2023-02-13T20:31:55.313Z,101052.74
2023-02-13T20:34:25.850Z,101051.01
2023-02-13T20:36:54.079Z,101048.91
2023-02-13T20:39:22.121Z,101043.48
2023-02-13T20:41:50.788Z,101042.79
2023-02-13T20:44:20.509Z,101042.27
2023-02-13T20:46:49.122Z,101043.84
2023-02-13T20:49:21.715Z,101044.89
2023-02-13T20:51:50.014Z,101050.14
2023-02-13T20:54:18.113Z,101060.45
2023-02-13T20:56:47.629Z,101061.34
2023-02-13T20:59:15.498Z,101065.00
2023-02-13T21:01:45.685Z,101067.62
2023-02-13T21:04:19.087Z,101071.30
2023-02-13T21:06:48.197Z,101078.66
2023-02-13T21:09:16.862Z,101090.20
2023-02-13T21:11:45.028Z,101093.35
2023-02-13T21:14:13.964Z,101095.29
2023-02-13T21:16:43.230Z,101094.77
2023-02-13T21:19:19.298Z,101092.69
2023-02-13T21:21:48.111Z,101091.98
2023-02-13T21:24:22.673Z,101087.28
2023-02-13T21:26:52.551Z,101090.79
2023-02-13T21:29:20.984Z,101096.36
2023-02-13T21:31:49.151Z,101098.64
2023-02-13T21:34:17.715Z,101098.81
2023-02-13T21:36:46.788Z,101098.82
2023-02-13T21:39:16.053Z,101105.95
2023-02-13T21:41:45.731Z,101107.19
2023-02-13T21:44:16.109Z,101107.02
2023-02-13T21:46:45.717Z,101109.11
2023-02-13T21:49:16.489Z,101107.89
2023-02-13T21:51:44.929Z,101106.32
2023-02-13T21:54:13.468Z,101103.35
2023-02-13T21:56:43.147Z,101105.11
2023-02-13T21:59:17.269Z,101105.44
2023-02-13T22:01:54.937Z,101102.83
2023-02-13T22:04:23.459Z,101105.27
2023-02-13T22:06:52.290Z,101105.79
2023-02-13T22:09:21.732Z,101109.29
2023-02-13T22:11:51.837Z,101109.27
2023-02-13T22:14:20.541Z,101110.14
2023-02-13T22:16:50.967Z,101107.67
2023-02-13T22:19:20.577Z,101110.63
2023-02-13T22:21:48.981Z,101101.00
2023-02-13T22:24:17.089Z,101106.23
2023-02-13T22:26:45.465Z,101105.55
2023-02-13T22:29:15.465Z,101109.58
2023-02-13T22:31:43.655Z,101110.11
2023-02-13T22:34:13.523Z,101109.23
2023-02-13T22:36:42.710Z,101107.66
2023-02-13T22:39:11.293Z,101108.54
2023-02-13T22:41:39.159Z,101100.48
2023-02-13T22:44:07.119Z,101097.85
2023-02-13T22:46:35.569Z,101101.70
2023-02-13T22:49:03.961Z,101101.18
2023-02-13T22:51:34.535Z,101103.28
2023-02-13T22:54:03.286Z,101102.60
2023-02-13T22:56:32.296Z,101100.86
2023-02-13T22:59:00.263Z,101102.97
2023-02-13T23:01:29.078Z,101095.79
2023-02-13T23:03:57.494Z,101094.21
2023-02-13T23:06:26.000Z,101092.46
2023-02-13T23:08:54.188Z,101087.57
2023-02-13T23:11:45.675Z,101085.48
2023-02-13T23:14:14.311Z,101087.21
2023-02-13T23:17:01.772Z,101084.95
2023-02-13T23:19:30.675Z,101084.26
2023-02-13T23:21:59.539Z,101082.70
2023-02-13T23:24:28.531Z,101084.10
2023-02-13T23:26:56.437Z,101081.12
2023-02-13T23:29:24.283Z,101083.56
2023-02-13T23:31:52.713Z,101083.23
2023-02-13T23:34:20.732Z,101080.27
2023-02-13T23:36:48.671Z,101078.17
2023-02-13T23:39:16.614Z,101080.27
2023-02-13T23:41:44.472Z,101080.98
2023-02-13T23:44:12.394Z,101081.33
2023-02-13T23:46:40.337Z,101079.96
2023-02-13T23:49:08.177Z,101079.09
2023-02-13T23:51:36.026Z,101079.78
2023-02-13T23:54:04.995Z,101078.39
2023-02-13T23:56:32.926Z,101077.88
2023-02-13T23:59:00.773Z,101079.82
